Cheikh El Mokrani — C6WD5 — position and weather

sailwx.info

Track history (hours):
 
Tides and Currents Weather Stations Pressure Air Temp Water Temp Dewpoint Dewpoint Depression Visibility Wind Speed Wind Dir Waves Ship Positions

Cheikh El Mokrani

Last reported at 2015-May-02 17:21 UTC. Time now 2015-May-04 03:59 UTC.
Position N 42°04' E 005°25'.

Length 220 m; draft 8.1 m.

Type: Ship (hazmat cat D). MMSI: 309979000.

Date/timePositionNaut miles runAvg speedWind from/ knotsBaromVisibWave heightAir tempDewpointWater temp
2015-May-02 17:21N 42°04' E 005°25'6516.6
2015-May-02 13:26N 43°07' E 005°03'1315.3
2015-May-02 12:33N 43°20' E 004°58'8 8.1
2015-May-02 11:33N 43°26' E 004°52'1 0.7
2015-May-02 10:28N 43°27' E 004°51'0 0.0
2015-May-02 09:34N 43°27' E 004°51'0 0.0
2015-May-02 08:28N 43°27' E 004°51'0 0.0
2015-May-02 07:28N 43°27' E 004°51'0 0.0
2015-May-02 06:31N 43°27' E 004°51'0 0.0
2015-May-02 05:28N 43°27' E 004°51'0 0.0
2015-May-02 04:28N 43°27' E 004°51'0 0.0
2015-May-02 03:28N 43°27' E 004°51'0 0.0
2015-May-02 02:28N 43°27' E 004°51'0 0.0
2015-May-02 01:22N 43°27' E 004°51'0 0.0
2015-May-02 00:22N 43°27' E 004°51'0 0.0
2015-May-01 23:28N 43°27' E 004°51'0 0.0
2015-May-01 22:22N 43°27' E 004°51'0 0.0
2015-May-01 21:22N 43°27' E 004°51'0 0.0
2015-May-01 20:28N 43°27' E 004°51'0 0.0
2015-May-01 19:04N 43°27' E 004°51'0 0.0
2015-May-01 18:28N 43°27' E 004°51'0 0.0
2015-May-01 17:04N 43°27' E 004°51'0 0.0
2015-May-01 16:34N 43°27' E 004°51'0 0.0
2015-May-01 15:22N 43°27' E 004°51'0 0.0
2015-May-01 14:34N 43°27' E 004°51'0 0.0
2015-May-01 13:28N 43°27' E 004°51'0 0.0
2015-May-01 12:04N 43°27' E 004°51'0 0.0
2015-May-01 11:28N 43°27' E 004°51'0 0.0
2015-May-01 10:22N 43°27' E 004°51'0 0.0
2015-May-01 09:28N 43°27' E 004°51'0 0.0
2015-May-01 08:16N 43°27' E 004°51'0 0.0
2015-May-01 07:28N 43°27' E 004°51'1 0.9
2015-May-01 06:33N 43°26' E 004°52'8 8.5
2015-May-01 05:33N 43°20' E 004°59'9 7.7
2015-May-01 04:26N 43°11' E 005°03'3414.6
2015-May-01 02:06N 42°39' E 005°14'1615.8
2015-May-01 01:04N 42°23' E 005°20'  
2015-Apr-28 00:25N 42°06' E 005°24'1617.2
2015-Apr-27 23:31N 42°20' E 005°18'1817.3
2015-Apr-27 22:30N 42°37' E 005°12'1717.4
2015-Apr-27 21:30N 42°54' E 005°07'1616.7
2015-Apr-27 20:33N 43°10' E 005°01'1313.2
2015-Apr-27 19:33N 43°23' E 004°57'6 6.1
2015-Apr-27 18:31N 43°27' E 004°51'0 0.0
2015-Apr-27 17:25N 43°27' E 004°51'0 0.0
2015-Apr-27 16:25N 43°27' E 004°51'0 0.0
2015-Apr-27 15:28N 43°27' E 004°51'0 0.0
2015-Apr-27 14:31N 43°27' E 004°51'0 0.0
2015-Apr-27 13:07N 43°27' E 004°51'0 0.0
2015-Apr-27 12:31N 43°27' E 004°51'0 0.0
2015-Apr-27 11:07N 43°27' E 004°51'0 0.0
2015-Apr-27 10:31N 43°27' E 004°51'0 0.0
2015-Apr-27 09:19N 43°27' E 004°51'0 0.0
2015-Apr-27 08:31N 43°27' E 004°51'0 0.0
2015-Apr-27 06:25N 43°27' E 004°51'0 0.0
2015-Apr-27 05:13N 43°27' E 004°51'0 0.0
2015-Apr-27 04:13N 43°27' E 004°51'0 0.0
2015-Apr-27 03:31N 43°27' E 004°51'0 0.0
2015-Apr-27 02:31N 43°27' E 004°51'0 0.0
2015-Apr-27 01:31N 43°27' E 004°51'0 0.0
2015-Apr-27 00:31N 43°27' E 004°51'0 0.0
2015-Apr-26 23:25N 43°27' E 004°51'0 0.0
2015-Apr-26 22:19N 43°27' E 004°51'0 0.0
2015-Apr-26 21:25N 43°27' E 004°51'0 0.0
2015-Apr-26 20:22N 43°27' E 004°51'0 0.0
2015-Apr-26 19:19N 43°27' E 004°51'0 0.0
2015-Apr-26 18:19N 43°27' E 004°51'0 0.0
2015-Apr-26 17:25N 43°27' E 004°51'0 0.0
2015-Apr-26 16:31N 43°27' E 004°51'0 0.0
2015-Apr-26 15:31N 43°27' E 004°51'0 0.0
2015-Apr-26 14:31N 43°27' E 004°51'0 0.0
2015-Apr-26 13:22N 43°27' E 004°51'0 0.3
2015-Apr-26 12:33N 43°27' E 004°51'7 6.6
2015-Apr-26 11:33N 43°22' E 004°58'7 6.8
2015-Apr-26 10:33N 43°16' E 005°01'7 7.1
2015-Apr-26 09:33N 43°09' E 005°03'1815.9
2015-Apr-26 08:26N 42°52' E 005°09'1816.2
2015-Apr-26 07:20N 42°34' E 005°16'3416.5
2015-Apr-26 05:16N 42°02' E 005°28'10116.4
2015-Apr-25 23:06N 40°23' E 006°01'1616.2
2015-Apr-25 22:08N 40°08' E 006°06'1016.3
2015-Apr-25 21:32N 39°59' E 006°09'2016.5
2015-Apr-25 20:20N 39°40' E 006°15'1316.5
2015-Apr-25 19:33N 39°27' E 006°19'1616.4
2015-Apr-25 18:33N 39°11' E 006°25'  
2015-Apr-23 00:26N 37°56' E 006°46'3711.1
2015-Apr-22 21:05N 38°33' E 006°35'7 7.6
2015-Apr-22 20:08N 38°40' E 006°32'5 7.8
2015-Apr-22 19:27N 38°45' E 006°31'  
Track history (hours):
 
Tides and Currents Weather Stations Pressure Air Temp Water Temp Dewpoint Dewpoint Depression Visibility Wind Speed Wind Dir Waves Ship Positions

Cheikh El Mokrani

Last reported at 2015-May-02 17:21 UTC. Time now 2015-May-04 03:59 UTC.
Position N 42°04' E 005°25'.

Length 220 m; draft 8.1 m.

Type: Ship (hazmat cat D). MMSI: 309979000.

Date/timePositionNaut miles runAvg speedWind from/ knotsBaromVisibWave heightAir tempDewpointWater temp
2015-May-02 17:21N 42°04' E 005°25'6516.6
2015-May-02 13:26N 43°07' E 005°03'1315.3
2015-May-02 12:33N 43°20' E 004°58'8 8.1
2015-May-02 11:33N 43°26' E 004°52'1 0.7
2015-May-02 10:28N 43°27' E 004°51'0 0.0
2015-May-02 09:34N 43°27' E 004°51'0 0.0
2015-May-02 08:28N 43°27' E 004°51'0 0.0
2015-May-02 07:28N 43°27' E 004°51'0 0.0
2015-May-02 06:31N 43°27' E 004°51'0 0.0
2015-May-02 05:28N 43°27' E 004°51'0 0.0
2015-May-02 04:28N 43°27' E 004°51'0 0.0
2015-May-02 03:28N 43°27' E 004°51'0 0.0
2015-May-02 02:28N 43°27' E 004°51'0 0.0
2015-May-02 01:22N 43°27' E 004°51'0 0.0
2015-May-02 00:22N 43°27' E 004°51'0 0.0
2015-May-01 23:28N 43°27' E 004°51'0 0.0
2015-May-01 22:22N 43°27' E 004°51'0 0.0
2015-May-01 21:22N 43°27' E 004°51'0 0.0
2015-May-01 20:28N 43°27' E 004°51'0 0.0
2015-May-01 19:04N 43°27' E 004°51'0 0.0
2015-May-01 18:28N 43°27' E 004°51'0 0.0
2015-May-01 17:04N 43°27' E 004°51'0 0.0
2015-May-01 16:34N 43°27' E 004°51'0 0.0
2015-May-01 15:22N 43°27' E 004°51'0 0.0
2015-May-01 14:34N 43°27' E 004°51'0 0.0
2015-May-01 13:28N 43°27' E 004°51'0 0.0
2015-May-01 12:04N 43°27' E 004°51'0 0.0
2015-May-01 11:28N 43°27' E 004°51'0 0.0
2015-May-01 10:22N 43°27' E 004°51'0 0.0
2015-May-01 09:28N 43°27' E 004°51'0 0.0
2015-May-01 08:16N 43°27' E 004°51'0 0.0
2015-May-01 07:28N 43°27' E 004°51'1 0.9
2015-May-01 06:33N 43°26' E 004°52'8 8.5
2015-May-01 05:33N 43°20' E 004°59'9 7.7
2015-May-01 04:26N 43°11' E 005°03'3414.6
2015-May-01 02:06N 42°39' E 005°14'1615.8
2015-May-01 01:04N 42°23' E 005°20'  
2015-Apr-28 00:25N 42°06' E 005°24'1617.2
2015-Apr-27 23:31N 42°20' E 005°18'1817.3
2015-Apr-27 22:30N 42°37' E 005°12'1717.4
2015-Apr-27 21:30N 42°54' E 005°07'1616.7
2015-Apr-27 20:33N 43°10' E 005°01'1313.2
2015-Apr-27 19:33N 43°23' E 004°57'6 6.1
2015-Apr-27 18:31N 43°27' E 004°51'0 0.0
2015-Apr-27 17:25N 43°27' E 004°51'0 0.0
2015-Apr-27 16:25N 43°27' E 004°51'0 0.0
2015-Apr-27 15:28N 43°27' E 004°51'0 0.0
2015-Apr-27 14:31N 43°27' E 004°51'0 0.0
2015-Apr-27 13:07N 43°27' E 004°51'0 0.0
2015-Apr-27 12:31N 43°27' E 004°51'0 0.0
2015-Apr-27 11:07N 43°27' E 004°51'0 0.0
2015-Apr-27 10:31N 43°27' E 004°51'0 0.0
2015-Apr-27 09:19N 43°27' E 004°51'0 0.0
2015-Apr-27 08:31N 43°27' E 004°51'0 0.0
2015-Apr-27 06:25N 43°27' E 004°51'0 0.0
2015-Apr-27 05:13N 43°27' E 004°51'0 0.0
2015-Apr-27 04:13N 43°27' E 004°51'0 0.0
2015-Apr-27 03:31N 43°27' E 004°51'0 0.0
2015-Apr-27 02:31N 43°27' E 004°51'0 0.0
2015-Apr-27 01:31N 43°27' E 004°51'0 0.0
2015-Apr-27 00:31N 43°27' E 004°51'0 0.0
2015-Apr-26 23:25N 43°27' E 004°51'0 0.0
2015-Apr-26 22:19N 43°27' E 004°51'0 0.0
2015-Apr-26 21:25N 43°27' E 004°51'0 0.0
2015-Apr-26 20:22N 43°27' E 004°51'0 0.0
2015-Apr-26 19:19N 43°27' E 004°51'0 0.0
2015-Apr-26 18:19N 43°27' E 004°51'0 0.0
2015-Apr-26 17:25N 43°27' E 004°51'0 0.0
2015-Apr-26 16:31N 43°27' E 004°51'0 0.0
2015-Apr-26 15:31N 43°27' E 004°51'0 0.0
2015-Apr-26 14:31N 43°27' E 004°51'0 0.0
2015-Apr-26 13:22N 43°27' E 004°51'0 0.3
2015-Apr-26 12:33N 43°27' E 004°51'7 6.6
2015-Apr-26 11:33N 43°22' E 004°58'7 6.8
2015-Apr-26 10:33N 43°16' E 005°01'7 7.1
2015-Apr-26 09:33N 43°09' E 005°03'1815.9
2015-Apr-26 08:26N 42°52' E 005°09'1816.2
2015-Apr-26 07:20N 42°34' E 005°16'3416.5
2015-Apr-26 05:16N 42°02' E 005°28'10116.4
2015-Apr-25 23:06N 40°23' E 006°01'1616.2
2015-Apr-25 22:08N 40°08' E 006°06'1016.3
2015-Apr-25 21:32N 39°59' E 006°09'2016.5
2015-Apr-25 20:20N 39°40' E 006°15'1316.5
2015-Apr-25 19:33N 39°27' E 006°19'1616.4
2015-Apr-25 18:33N 39°11' E 006°25'  
2015-Apr-23 00:26N 37°56' E 006°46'3711.1
2015-Apr-22 21:05N 38°33' E 006°35'7 7.6
2015-Apr-22 20:08N 38°40' E 006°32'5 7.8
2015-Apr-22 19:27N 38°45' E 006°31'  

Dump ship's entire track history